Time;durP1;ratioP1;P1;durP2;ratioP2;P2;SDS_P1;SDS_P2;PMS_P1;PMS_P2;Temp;Humidity;BMP_temperature;BMP_pressure;BME280_temperature;BME280_humidity;BME280_pressure;Samples;Min_cycle;Max_cycle;Signal;HPM_P1;HPM_P2
2023/11/10 00:02:10;;;;;;;5.70;1.38;;;9.80;99.90;;;;;;4995402;28;20038;-76
2023/11/10 00:04:56;;;;;;;6.43;1.55;;;9.80;99.90;;;;;;4968527;28;20050;-75
2023/11/10 00:07:44;;;;;;;7.32;2.13;;;9.80;99.90;;;;;;4979738;28;20031;-75
2023/11/10 00:10:31;;;;;;;;;;;9.80;99.90;;;;;;4996075;28;20049;-75
2023/11/10 00:13:17;;;;;;;4.95;1.20;;;9.90;99.90;;;;;;4979913;28;19918;-75
2023/11/10 00:16:06;;;;;;;4.05;1.20;;;9.90;99.90;;;;;;4980050;28;20046;-76
2023/11/10 00:18:56;;;;;;;6.40;1.20;;;9.90;99.90;;;;;;4981996;28;20038;-76
2023/11/10 00:21:43;;;;;;;5.22;1.20;;;9.90;99.90;;;;;;4981136;28;20042;-76
2023/11/10 00:24:36;;;;;;;10.18;1.50;;;9.90;99.90;;;;;;4980280;28;20070;-76
2023/11/10 00:27:23;;;;;;;4.60;1.38;;;9.90;99.90;;;;;;4982210;28;20490;-76
2023/11/10 00:30:12;;;;;;;7.28;1.55;;;9.90;99.90;;;;;;4982008;28;20034;-76
2023/11/10 00:32:58;;;;;;;10.90;2.05;;;9.90;99.90;;;;;;4981262;28;20077;-76
2023/11/10 00:35:44;;;;;;;6.47;1.38;;;9.90;99.90;;;;;;4981877;28;20034;-76
2023/11/10 00:38:31;;;;;;;8.18;1.40;;;9.80;99.90;;;;;;4968834;28;20038;-76
2023/11/10 00:41:19;;;;;;;6.07;1.83;;;9.80;99.90;;;;;;4978886;28;20034;-76
2023/11/10 00:44:06;;;;;;;7.03;1.80;;;9.80;99.90;;;;;;4994548;28;20042;-76
2023/11/10 00:46:53;;;;;;;12.90;2.63;;;9.90;99.90;;;;;;4994883;28;20345;-76
2023/11/10 00:49:39;;;;;;;8.70;1.40;;;9.80;99.90;;;;;;4949901;28;20049;-76
2023/11/10 00:52:25;;;;;;;4.32;1.38;;;9.80;99.90;;;;;;4962451;28;20054;-76
2023/11/10 00:55:11;;;;;;;6.78;1.60;;;9.80;99.90;;;;;;4962575;28;20054;-76
2023/11/10 00:57:58;;;;;;;5.93;1.73;;;9.80;99.90;;;;;;4981942;28;20053;-76
2023/11/10 01:00:44;;;;;;;4.38;1.52;;;9.80;99.90;;;;;;4968257;28;20395;-76
2023/11/10 01:03:30;;;;;;;4.95;1.23;;;9.70;99.90;;;;;;4977464;28;20053;-75
2023/11/10 01:06:16;;;;;;;6.00;1.48;;;9.70;99.90;;;;;;4960996;28;20046;-76
2023/11/10 01:09:02;;;;;;;7.63;1.95;;;9.70;99.90;;;;;;4962970;28;20414;-76
2023/11/10 01:11:48;;;;;;;4.50;1.13;;;9.60;99.90;;;;;;4975419;28;20493;-75
2023/11/10 01:14:34;;;;;;;6.20;1.42;;;9.60;99.90;;;;;;4979984;28;20077;-76
2023/11/10 01:17:21;;;;;;;5.47;1.33;;;9.60;99.90;;;;;;4969408;28;20138;-76
2023/11/10 01:20:08;;;;;;;6.10;1.40;;;9.50;99.90;;;;;;4996177;28;20557;-76
2023/11/10 01:22:54;;;;;;;4.70;1.48;;;9.50;99.90;;;;;;4968357;28;20610;-76
2023/11/10 01:25:42;;;;;;;3.78;1.52;;;9.50;99.90;;;;;;4982457;28;20049;-77
2023/11/10 01:28:28;;;;;;;6.03;1.13;;;9.50;99.90;;;;;;4965661;28;20046;-77
2023/11/10 01:31:15;;;;;;;4.50;1.10;;;9.40;99.90;;;;;;4963365;28;20035;-76
2023/11/10 01:34:01;;;;;;;3.53;1.10;;;9.40;99.90;;;;;;4985723;28;20038;-76
2023/11/10 01:36:48;;;;;;;4.95;1.17;;;9.40;99.90;;;;;;4949876;28;20274;-77
2023/11/10 01:39:34;;;;;;;4.07;1.20;;;9.40;99.90;;;;;;4962630;28;20375;-76
2023/11/10 01:42:21;;;;;;;3.92;1.13;;;9.30;99.90;;;;;;4976774;28;20043;-76
2023/11/10 01:45:09;;;;;;;5.85;1.17;;;9.30;99.90;;;;;;4962500;28;20082;-76
2023/11/10 01:47:55;;;;;;;7.85;1.38;;;9.30;99.90;;;;;;4964520;28;20050;-76
2023/11/10 01:50:42;;;;;;;5.85;1.38;;;9.30;99.90;;;;;;4954766;28;20058;-76
2023/11/10 01:53:29;;;;;;;9.27;1.52;;;9.30;99.90;;;;;;4966387;28;20122;-76
2023/11/10 01:56:16;;;;;;;4.82;1.10;;;9.30;99.90;;;;;;4980091;28;20096;-76
2023/11/10 01:59:02;;;;;;;5.55;1.10;;;9.30;99.90;;;;;;4958717;28;20030;-77
2023/11/10 02:01:50;;;;;;;7.05;1.38;;;9.30;99.90;;;;;;4957745;28;20038;-76
2023/11/10 02:04:36;;;;;;;5.50;1.15;;;9.20;99.90;;;;;;4982820;28;20047;-76
2023/11/10 02:07:23;;;;;;;4.00;1.40;;;9.20;99.90;;;;;;4972120;28;20039;-76
2023/11/10 02:10:11;;;;;;;4.10;1.05;;;9.20;99.90;;;;;;4951630;28;20585;-76
2023/11/10 02:12:57;;;;;;;2.60;1.00;;;9.10;99.90;;;;;;4968116;28;20050;-76
2023/11/10 02:15:44;;;;;;;2.95;0.85;;;9.00;99.90;;;;;;4965830;28;20113;-77
2023/11/10 02:18:31;;;;;;;1.73;0.70;;;9.00;99.90;;;;;;4978042;28;20046;-75
2023/11/10 02:21:17;;;;;;;5.97;0.88;;;9.00;99.90;;;;;;4907204;29;20043;-75
2023/11/10 02:24:10;;;;;;;5.57;0.90;;;8.90;99.90;;;;;;4906822;29;20044;-75
2023/11/10 02:26:57;;;;;;;3.60;0.80;;;8.80;99.90;;;;;;4920695;29;20032;-75
2023/11/10 02:29:43;;;;;;;3.55;0.75;;;8.70;99.90;;;;;;4935524;29;20054;-75
2023/11/10 02:32:30;;;;;;;3.63;0.80;;;8.70;99.90;;;;;;4939234;29;20040;-75
2023/11/10 02:35:16;;;;;;;2.00;0.60;;;8.70;99.90;;;;;;4926028;29;20054;-75
2023/11/10 02:38:02;;;;;;;2.17;0.60;;;8.60;99.90;;;;;;4926199;29;20143;-75
2023/11/10 02:40:48;;;;;;;2.00;0.60;;;8.60;99.90;;;;;;4925689;29;20035;-75
2023/11/10 02:43:34;;;;;;;3.10;0.60;;;8.60;99.90;;;;;;4938782;29;20052;-75
2023/11/10 02:46:20;;;;;;;3.42;0.50;;;8.60;99.90;;;;;;4923663;29;20039;-75
2023/11/10 02:49:06;;;;;;;4.03;0.80;;;8.50;99.90;;;;;;4925915;29;20035;-74
2023/11/10 02:51:52;;;;;;;1.98;0.75;;;8.60;99.90;;;;;;4938654;29;20053;-75
2023/11/10 02:54:38;;;;;;;4.80;0.70;;;8.50;99.90;;;;;;4936973;29;20177;-75
2023/11/10 02:57:24;;;;;;;2.30;0.50;;;8.60;99.90;;;;;;4942755;28;20040;-75
2023/11/10 03:00:11;;;;;;;2.55;0.60;;;8.50;99.90;;;;;;4960221;28;20043;-75
2023/11/10 03:02:57;;;;;;;3.75;0.88;;;8.50;99.90;;;;;;4996962;28;20378;-75
2023/11/10 03:05:43;;;;;;;3.70;0.75;;;8.50;99.90;;;;;;4984929;28;20050;-75
2023/11/10 03:08:29;;;;;;;4.40;0.70;;;8.50;99.90;;;;;;4978505;28;20034;-75
2023/11/10 03:11:16;;;;;;;2.15;0.80;;;8.50;99.90;;;;;;4950431;28;20034;-75
2023/11/10 03:14:03;;;;;;;3.75;0.80;;;8.50;99.90;;;;;;4951258;28;20462;-75
2023/11/10 03:16:49;;;;;;;2.50;0.95;;;8.50;99.90;;;;;;4943913;28;20047;-75
2023/11/10 03:19:36;;;;;;;4.88;1.40;;;8.50;99.90;;;;;;4960433;28;20070;-75
2023/11/10 03:22:24;;;;;;;5.80;1.17;;;8.40;99.90;;;;;;4983425;28;20137;-75
2023/11/10 03:25:10;;;;;;;4.30;0.93;;;8.40;99.90;;;;;;4969521;28;20035;-75
2023/11/10 03:27:56;;;;;;;3.30;1.10;;;8.30;99.90;;;;;;4957555;28;20049;-75
2023/11/10 03:30:43;;;;;;;4.82;0.90;;;8.30;99.90;;;;;;4983208;28;20034;-75
2023/11/10 03:33:29;;;;;;;2.92;0.85;;;8.30;99.90;;;;;;4997237;28;20045;-75
2023/11/10 03:36:15;;;;;;;5.90;1.30;;;8.40;99.90;;;;;;4950772;28;20039;-75
2023/11/10 03:39:02;;;;;;;6.43;0.98;;;8.30;99.90;;;;;;4951472;28;20031;-75
2023/11/10 03:41:48;;;;;;;5.72;1.50;;;8.30;99.90;;;;;;4955975;28;20038;-75
2023/11/10 03:44:35;;;;;;;2.97;0.80;;;8.30;99.90;;;;;;4984335;28;20355;-75
2023/11/10 03:47:23;;;;;;;3.17;0.90;;;8.40;99.90;;;;;;4982257;28;20040;-75
2023/11/10 03:50:09;;;;;;;3.83;0.98;;;8.30;99.90;;;;;;4970892;28;20105;-75
2023/11/10 03:52:56;;;;;;;4.03;1.00;;;8.30;99.90;;;;;;4969508;28;20064;-75
2023/11/10 03:55:43;;;;;;;6.18;1.20;;;8.30;99.90;;;;;;4965514;28;20062;-75
2023/11/10 03:58:29;;;;;;;4.57;1.52;;;8.30;99.90;;;;;;4955881;28;20042;-75
2023/11/10 04:01:15;;;;;;;9.70;2.50;;;8.40;99.90;;;;;;4970691;28;20093;-75
2023/11/10 04:04:03;;;;;;;6.40;1.45;;;8.40;99.90;;;;;;4982841;28;20159;-75
2023/11/10 04:06:50;;;;;;;5.55;1.30;;;8.30;99.90;;;;;;4982949;28;20085;-75
2023/11/10 04:09:36;;;;;;;4.22;1.17;;;8.30;99.90;;;;;;4963023;28;20078;-75
2023/11/10 04:12:24;;;;;;;3.42;1.00;;;8.40;99.90;;;;;;4977479;28;20174;-75
2023/11/10 04:15:10;;;;;;;;;;;8.30;99.90;;;;;;4983834;28;20046;-75
2023/11/10 04:17:56;;;;;;;7.50;1.27;;;8.40;99.90;;;;;;4981674;28;19913;-75
2023/11/10 04:20:45;;;;;;;5.30;0.90;;;8.40;99.90;;;;;;4967461;28;20045;-75
2023/11/10 04:23:31;;;;;;;3.50;0.95;;;8.30;99.90;;;;;;4995886;28;20636;-75
2023/11/10 04:26:17;;;;;;;3.47;1.00;;;8.40;99.90;;;;;;4980776;28;20138;-75
2023/11/10 04:29:05;;;;;;;9.13;1.88;;;8.30;99.90;;;;;;4968558;28;20035;-75
2023/11/10 04:31:51;;;;;;;5.57;0.80;;;8.40;99.90;;;;;;4949993;28;20042;-75
2023/11/10 04:34:39;;;;;;;5.45;0.70;;;8.40;99.90;;;;;;4950583;28;20039;-75
2023/11/10 04:37:26;;;;;;;4.57;0.82;;;8.30;99.90;;;;;;4951056;28;20531;-75
2023/11/10 04:40:12;;;;;;;3.03;0.70;;;8.30;99.90;;;;;;4964035;28;20109;-75
2023/11/10 04:43:00;;;;;;;6.03;0.88;;;8.20;99.90;;;;;;4967202;28;20038;-75
2023/11/10 04:45:47;;;;;;;;;;;8.20;99.90;;;;;;4963320;28;20488;-75
2023/11/10 04:48:33;;;;;;;3.22;0.60;;;8.20;99.90;;;;;;4950250;28;19909;-75
2023/11/10 04:51:19;;;;;;;6.65;1.00;;;8.20;99.90;;;;;;4963679;28;20054;-77
2023/11/10 04:54:05;;;;;;;2.38;0.77;;;8.20;99.90;;;;;;4975962;28;20081;-76
2023/11/10 04:56:51;;;;;;;4.35;0.80;;;8.20;99.90;;;;;;4980249;28;20478;-76
2023/11/10 04:59:39;;;;;;;3.53;0.90;;;8.10;99.90;;;;;;4964867;28;20108;-76
2023/11/10 05:02:25;;;;;;;4.55;0.70;;;8.10;99.90;;;;;;4982513;28;20720;-76
2023/11/10 05:05:15;;;;;;;3.60;1.02;;;8.20;99.90;;;;;;4982913;28;20466;-76
2023/11/10 05:08:02;;;;;;;4.70;0.90;;;8.10;99.90;;;;;;4968208;28;20034;-76
2023/11/10 05:10:48;;;;;;;3.50;0.68;;;8.10;99.90;;;;;;4967515;28;20073;-77
2023/11/10 05:13:34;;;;;;;3.20;0.70;;;8.10;99.90;;;;;;4982248;28;20494;-76
2023/11/10 05:16:21;;;;;;;9.48;1.25;;;8.00;99.90;;;;;;4969177;28;20628;-77
2023/11/10 05:19:07;;;;;;;6.78;1.00;;;8.10;99.90;;;;;;4982644;28;20042;-77
2023/11/10 05:21:53;;;;;;;3.65;1.00;;;8.10;99.90;;;;;;4954768;28;20041;-77
2023/11/10 05:24:42;;;;;;;2.92;1.08;;;8.10;99.90;;;;;;4957163;28;20125;-77
2023/11/10 05:27:28;;;;;;;6.25;1.60;;;8.00;99.90;;;;;;4957567;28;20034;-77
2023/11/10 05:30:14;;;;;;;7.82;1.35;;;7.90;99.90;;;;;;4969503;28;20070;-77
2023/11/10 05:33:02;;;;;;;6.10;1.60;;;7.90;99.90;;;;;;4950238;28;20070;-77
2023/11/10 05:35:50;;;;;;;2.97;0.60;;;7.90;99.90;;;;;;4981092;28;20402;-77
2023/11/10 05:38:36;;;;;;;6.78;0.70;;;7.90;99.90;;;;;;4967759;28;20038;-77
2023/11/10 05:41:23;;;;;;;6.35;1.00;;;7.80;99.90;;;;;;4980097;28;20096;-77
2023/11/10 05:44:09;;;;;;;4.65;0.77;;;7.80;99.90;;;;;;4969559;28;20344;-77
2023/11/10 05:46:55;;;;;;;3.40;0.80;;;7.70;99.90;;;;;;4969938;28;20467;-77
2023/11/10 05:49:43;;;;;;;2.58;0.88;;;7.70;99.90;;;;;;4997395;28;20426;-78
2023/11/10 05:52:31;;;;;;;5.78;0.70;;;7.70;99.90;;;;;;4968165;28;20513;-77
2023/11/10 05:55:18;;;;;;;4.32;0.77;;;7.70;99.90;;;;;;4982439;28;20065;-77
2023/11/10 05:58:05;;;;;;;3.95;0.60;;;7.60;99.90;;;;;;4949470;28;20042;-77
2023/11/10 06:00:51;;;;;;;3.78;0.90;;;7.60;99.90;;;;;;4953979;28;20038;-77
2023/11/10 06:03:39;;;;;;;3.13;0.75;;;7.70;99.90;;;;;;4962116;28;20415;-77
2023/11/10 06:06:26;;;;;;;3.53;0.80;;;7.70;99.90;;;;;;4963214;28;20038;-77
2023/11/10 06:09:13;;;;;;;2.90;0.60;;;7.70;99.90;;;;;;4965548;28;20038;-77
2023/11/10 06:11:59;;;;;;;2.22;0.68;;;7.70;99.90;;;;;;4981450;28;20038;-77
2023/11/10 06:14:45;;;;;;;4.63;1.17;;;7.70;99.90;;;;;;4993710;28;20166;-77
2023/11/10 06:17:33;;;;;;;3.45;0.80;;;7.70;99.90;;;;;;4981731;28;20157;-77
2023/11/10 06:20:20;;;;;;;2.95;0.73;;;7.70;99.90;;;;;;4981348;28;20522;-77
2023/11/10 06:23:06;;;;;;;3.23;0.87;;;7.80;99.90;;;;;;4981727;28;20553;-76
2023/11/10 06:25:52;;;;;;;3.50;0.90;;;7.80;99.90;;;;;;4959480;28;20046;-76
2023/11/10 06:28:40;;;;;;;5.47;1.00;;;7.80;99.90;;;;;;4950101;28;20041;-75
2023/11/10 06:31:26;;;;;;;3.93;1.00;;;7.80;99.90;;;;;;4935584;28;20042;-75
2023/11/10 06:34:13;;;;;;;3.40;1.20;;;7.80;99.90;;;;;;4980877;28;20133;-75
2023/11/10 06:37:01;;;;;;;1.90;0.60;;;7.80;99.90;;;;;;4984725;28;20104;-75
2023/11/10 06:39:47;;;;;;;2.05;0.60;;;7.80;99.90;;;;;;4958971;28;20608;-74
2023/11/10 06:42:33;;;;;;;4.50;0.80;;;7.80;99.90;;;;;;4984795;28;20046;-75
2023/11/10 06:45:19;;;;;;;2.20;0.80;;;7.80;99.90;;;;;;4970396;28;20484;-75
2023/11/10 06:48:05;;;;;;;3.65;1.10;;;7.80;99.90;;;;;;4975693;28;20066;-75
2023/11/10 06:50:51;;;;;;;1.77;0.60;;;7.80;99.90;;;;;;4966283;28;20169;-75
2023/11/10 06:53:37;;;;;;;4.43;0.80;;;7.80;99.90;;;;;;4980053;28;20034;-75
2023/11/10 06:56:24;;;;;;;2.03;0.70;;;7.80;99.90;;;;;;4984425;28;20042;-75
2023/11/10 06:59:10;;;;;;;2.15;0.70;;;7.70;99.90;;;;;;4971335;28;20062;-75
2023/11/10 07:01:57;;;;;;;2.70;0.80;;;7.70;99.90;;;;;;4957976;28;20480;-75
2023/11/10 07:04:44;;;;;;;3.65;0.80;;;7.70;99.90;;;;;;4984823;28;20378;-75
2023/11/10 07:07:30;;;;;;;3.07;1.07;;;7.80;99.90;;;;;;4970747;28;20030;-75
2023/11/10 07:10:17;;;;;;;3.45;0.90;;;7.80;99.90;;;;;;4956334;28;20473;-74
2023/11/10 07:13:04;;;;;;;2.63;0.90;;;7.70;99.90;;;;;;4953204;28;20313;-75
2023/11/10 07:15:50;;;;;;;3.40;0.83;;;7.70;99.90;;;;;;4969197;28;20057;-76
2023/11/10 07:18:36;;;;;;;2.60;0.98;;;7.70;99.90;;;;;;4957898;28;20282;-77
2023/11/10 07:21:25;;;;;;;3.90;0.90;;;7.80;99.90;;;;;;4984465;28;20136;-77
2023/11/10 07:24:11;;;;;;;2.95;0.77;;;7.80;99.90;;;;;;4984230;28;20126;-76
2023/11/10 07:26:57;;;;;;;5.80;1.05;;;7.80;99.90;;;;;;4984043;28;20482;-76
2023/11/10 07:29:43;;;;;;;1.95;0.85;;;7.80;99.90;;;;;;4963936;28;20081;-75
2023/11/10 07:32:30;;;;;;;3.67;0.80;;;7.90;99.90;;;;;;4980944;28;20043;-75
2023/11/10 07:35:17;;;;;;;2.55;0.80;;;8.00;99.90;;;;;;4957307;28;20386;-75
2023/11/10 07:38:03;;;;;;;4.88;1.30;;;8.00;99.90;;;;;;4971470;28;20041;-75
2023/11/10 07:40:50;;;;;;;2.90;1.08;;;8.10;99.90;;;;;;4971014;28;20367;-75
2023/11/10 07:43:36;;;;;;;5.28;1.10;;;8.20;99.90;;;;;;4996819;28;20104;-75
2023/11/10 07:46:22;;;;;;;6.30;1.40;;;8.30;99.90;;;;;;4971259;28;20034;-75
2023/11/10 07:49:09;;;;;;;3.08;0.85;;;8.40;99.90;;;;;;4955479;28;20095;-75
2023/11/10 07:51:55;;;;;;;3.47;1.10;;;8.40;99.90;;;;;;4969432;28;20105;-75
2023/11/10 07:54:42;;;;;;;10.32;2.00;;;8.50;99.90;;;;;;4983668;28;20112;-77
2023/11/10 07:57:29;;;;;;;7.18;1.45;;;8.50;99.90;;;;;;4983281;28;20124;-76
2023/11/10 08:00:18;;;;;;;3.67;1.15;;;8.50;99.90;;;;;;4977558;28;20035;-77
2023/11/10 08:03:05;;;;;;;2.85;0.80;;;8.50;99.90;;;;;;4976510;28;20049;-77
2023/11/10 08:05:53;;;;;;;4.43;0.75;;;8.50;99.90;;;;;;4970841;28;20050;-77
2023/11/10 08:08:39;;;;;;;2.25;0.90;;;8.50;99.90;;;;;;4983155;28;20026;-77
2023/11/10 08:11:25;;;;;;;3.15;0.73;;;8.60;99.90;;;;;;4970734;28;20038;-77
2023/11/10 08:14:12;;;;;;;3.03;0.70;;;8.60;99.90;;;;;;4962167;28;20054;-77
2023/11/10 08:16:58;;;;;;;3.92;0.70;;;8.70;99.90;;;;;;4967392;28;20038;-77
2023/11/10 08:19:45;;;;;;;3.78;0.90;;;8.70;99.90;;;;;;4951606;28;20050;-77
2023/11/10 08:22:31;;;;;;;3.70;0.90;;;8.80;99.90;;;;;;4977146;28;20387;-77
2023/11/10 08:25:18;;;;;;;7.07;1.15;;;8.80;99.90;;;;;;4966289;28;20530;-77
2023/11/10 08:28:07;;;;;;;2.47;0.83;;;8.90;99.90;;;;;;4961782;28;20418;-77
2023/11/10 08:30:53;;;;;;;3.53;0.85;;;8.90;99.90;;;;;;4964339;28;20749;-77
2023/11/10 08:33:39;;;;;;;3.75;0.90;;;9.00;99.90;;;;;;4978307;28;20349;-76
2023/11/10 08:36:25;;;;;;;3.10;1.55;;;9.10;99.90;;;;;;4975629;28;20437;-76
2023/11/10 08:39:12;;;;;;;5.47;0.90;;;9.20;99.90;;;;;;4969476;28;20064;-77
2023/11/10 08:41:59;;;;;;;4.93;0.90;;;9.20;99.90;;;;;;4968255;28;20039;-77
2023/11/10 08:44:46;;;;;;;3.78;0.88;;;9.20;99.90;;;;;;4983809;28;20038;-77
2023/11/10 08:47:32;;;;;;;5.50;0.97;;;9.20;99.90;;;;;;4970552;28;20377;-76
2023/11/10 08:50:18;;;;;;;2.53;0.80;;;9.20;99.90;;;;;;4969553;28;20466;-76
2023/11/10 08:53:04;;;;;;;5.47;1.23;;;9.20;99.90;;;;;;4983840;28;20092;-76
2023/11/10 08:55:50;;;;;;;2.80;1.00;;;9.20;99.90;;;;;;4955893;28;20110;-77
2023/11/10 08:58:36;;;;;;;4.10;0.98;;;9.20;99.90;;;;;;4995753;28;20042;-77
2023/11/10 09:01:22;;;;;;;4.00;1.10;;;9.30;99.90;;;;;;4982502;28;20046;-77
2023/11/10 09:04:09;;;;;;;3.85;0.90;;;9.40;99.90;;;;;;4982388;28;20069;-77
2023/11/10 09:06:56;;;;;;;6.40;0.90;;;9.50;99.90;;;;;;4984016;28;20049;-76
2023/11/10 09:09:43;;;;;;;3.03;1.10;;;9.50;99.90;;;;;;4981103;28;20149;-77
2023/11/10 09:12:30;;;;;;;2.13;0.90;;;9.50;99.90;;;;;;4981084;28;20038;-77
2023/11/10 09:15:16;;;;;;;2.90;0.80;;;9.50;99.90;;;;;;4969037;28;20042;-77
2023/11/10 09:18:03;;;;;;;4.38;1.33;;;9.50;99.90;;;;;;4974328;28;20042;-77
2023/11/10 09:20:49;;;;;;;6.25;1.10;;;9.50;99.90;;;;;;4962869;28;20039;-77
2023/11/10 09:23:35;;;;;;;2.72;0.98;;;9.50;99.90;;;;;;4951357;28;20039;-77
2023/11/10 09:26:21;;;;;;;3.60;1.00;;;9.60;99.90;;;;;;4971397;28;20080;-76
2023/11/10 09:29:07;;;;;;;3.05;0.80;;;9.60;99.90;;;;;;4981990;28;20046;-76
2023/11/10 09:31:56;;;;;;;5.57;1.30;;;9.60;99.90;;;;;;4983349;28;20034;-75
2023/11/10 09:34:42;;;;;;;4.55;1.10;;;9.60;99.90;;;;;;4982202;28;20141;-77
2023/11/10 09:37:28;;;;;;;3.00;0.80;;;9.60;99.90;;;;;;4981708;28;20034;-76
2023/11/10 09:40:19;;;;;;;4.30;1.33;;;9.50;99.90;;;;;;4981244;28;20042;-76
2023/11/10 09:43:13;;;;;;;4.13;1.20;;;9.40;99.90;;;;;;4965351;28;20038;-76
2023/11/10 09:46:02;;;;;;;4.85;0.90;;;9.40;99.90;;;;;;4936860;28;20039;-75
2023/11/10 09:48:50;;;;;;;3.10;1.02;;;9.30;99.90;;;;;;4951817;28;20047;-77
2023/11/10 09:51:38;;;;;;;7.85;1.00;;;9.40;99.90;;;;;;4981369;28;20065;-77
2023/11/10 09:54:27;;;;;;;3.78;1.15;;;9.40;99.90;;;;;;4948204;28;20150;-77
2023/11/10 09:57:21;;;;;;;2.63;1.08;;;9.50;99.90;;;;;;4937011;28;20038;-76
2023/11/10 10:00:13;;;;;;;7.95;1.33;;;9.50;99.90;;;;;;4957597;28;20633;-76
2023/11/10 10:02:59;;;;;;;3.97;1.27;;;9.50;99.90;;;;;;4957860;28;20046;-76
2023/11/10 10:05:45;;;;;;;4.13;1.20;;;9.40;99.90;;;;;;4967852;28;20050;-76
2023/11/10 10:08:31;;;;;;;2.85;1.08;;;9.50;99.90;;;;;;4963433;28;20089;-76
2023/11/10 10:11:17;;;;;;;2.88;0.70;;;9.50;99.90;;;;;;4966024;28;20467;-76
2023/11/10 10:14:03;;;;;;;3.78;1.05;;;9.50;99.90;;;;;;4965700;28;20467;-76
2023/11/10 10:16:53;;;;;;;3.78;0.90;;;9.50;99.90;;;;;;4983999;28;20042;-76
2023/11/10 10:19:39;;;;;;;4.43;1.40;;;9.50;99.90;;;;;;4972132;28;20081;-76
2023/11/10 10:22:26;;;;;;;2.72;0.90;;;9.60;99.90;;;;;;4965844;28;20047;-75
2023/11/10 10:25:13;;;;;;;2.30;0.73;;;9.70;99.90;;;;;;4981819;28;20133;-76
2023/11/10 10:28:02;;;;;;;5.10;1.38;;;9.80;99.90;;;;;;4985296;28;20505;-76
2023/11/10 10:30:50;;;;;;;3.92;1.05;;;10.30;99.90;;;;;;4966067;28;20059;-77
2023/11/10 10:33:36;;;;;;;3.85;1.52;;;10.80;99.90;;;;;;4957811;28;20363;-77
2023/11/10 10:36:23;;;;;;;9.48;1.50;;;10.70;99.90;;;;;;4983265;28;20485;-76
2023/11/10 10:39:12;;;;;;;3.10;1.25;;;10.50;99.90;;;;;;4985715;28;20045;-76
2023/11/10 10:41:59;;;;;;;4.72;0.90;;;10.40;99.90;;;;;;4984642;28;20720;-76
2023/11/10 11:41:03;;;;;;;1.65;0.82;;;10.50;99.90;;;;;;4668004;28;20584;-75
2023/11/10 11:43:50;;;;;;;6.68;0.90;;;10.40;99.90;;;;;;4937626;28;20042;-75
2023/11/10 11:46:38;;;;;;;5.30;1.00;;;10.40;99.90;;;;;;4936538;28;20047;-75
2023/11/10 11:49:26;;;;;;;4.70;1.08;;;10.30;99.90;;;;;;4958904;28;20039;-75
2023/11/10 11:52:12;;;;;;;5.72;1.35;;;10.30;99.90;;;;;;4951054;29;20043;-75
2023/11/10 11:54:58;;;;;;;5.03;1.45;;;10.20;99.90;;;;;;4935427;29;20077;-76
2023/11/10 11:57:48;;;;;;;2.75;1.20;;;10.20;99.90;;;;;;4931357;29;20377;-76
2023/11/10 12:00:35;;;;;;;3.90;1.48;;;10.20;99.90;;;;;;4944551;29;20045;-76
2023/11/10 12:03:23;;;;;;;4.43;1.35;;;10.20;99.90;;;;;;4940775;29;20043;-76
2023/11/10 12:06:09;;;;;;;4.25;0.90;;;10.20;99.90;;;;;;4930573;29;20476;-76
2023/11/10 12:08:56;;;;;;;4.15;1.00;;;10.20;99.90;;;;;;4944544;29;20126;-76
2023/11/10 12:11:43;;;;;;;4.00;0.90;;;10.20;99.90;;;;;;4930538;29;20035;-76
2023/11/10 12:14:29;;;;;;;3.10;1.05;;;10.10;99.90;;;;;;4944599;29;20082;-76
2023/11/10 12:17:15;;;;;;;3.63;0.90;;;10.20;99.90;;;;;;4943373;29;20053;-76
2023/11/10 12:20:01;;;;;;;3.42;1.10;;;10.20;99.90;;;;;;4926992;28;20427;-76
2023/11/10 12:22:55;;;;;;;3.72;1.02;;;10.10;99.90;;;;;;4959671;28;20031;-76
2023/11/10 12:25:41;;;;;;;3.38;0.80;;;10.20;99.90;;;;;;4925579;28;20046;-76
2023/11/10 12:28:27;;;;;;;3.63;1.33;;;10.20;99.90;;;;;;4949379;28;20049;-76
2023/11/10 12:31:13;;;;;;;3.10;0.98;;;10.10;99.90;;;;;;4940046;29;20375;-76
2023/11/10 12:34:03;;;;;;;4.35;0.93;;;10.20;99.90;;;;;;4943819;29;20471;-76
2023/11/10 12:36:50;;;;;;;1.95;0.82;;;10.20;99.90;;;;;;4930041;29;20043;-76
2023/11/10 12:39:38;;;;;;;3.20;0.85;;;10.20;99.90;;;;;;4947781;28;20054;-76
2023/11/10 12:42:24;;;;;;;2.78;0.70;;;10.80;99.90;;;;;;4934311;29;20032;-75
2023/11/10 12:45:10;;;;;;;1.75;0.68;;;10.70;99.90;;;;;;4930557;29;20129;-76
2023/11/10 12:47:59;;;;;;;1.63;0.75;;;10.80;99.90;;;;;;4931747;29;20039;-76
2023/11/10 12:50:49;;;;;;;1.83;0.98;;;10.70;99.90;;;;;;4961326;28;20043;-76
2023/11/10 12:53:35;;;;;;;2.78;0.75;;;10.60;99.90;;;;;;4936122;28;20189;-76
2023/11/10 12:56:21;;;;;;;1.90;0.60;;;10.80;99.90;;;;;;4936755;28;20042;-75
2023/11/10 12:59:09;;;;;;;1.13;0.60;;;10.80;99.90;;;;;;4963042;28;20093;-76
2023/11/10 13:01:55;;;;;;;1.45;0.65;;;11.00;99.90;;;;;;4949016;28;20063;-76
2023/11/10 13:04:41;;;;;;;2.05;0.73;;;10.80;99.90;;;;;;4940253;28;20054;-76
2023/11/10 13:07:27;;;;;;;1.25;0.70;;;10.80;99.90;;;;;;4930463;28;20042;-76
2023/11/10 13:10:13;;;;;;;3.17;0.57;;;10.80;99.90;;;;;;4950168;28;20046;-75
2023/11/10 13:12:59;;;;;;;4.35;0.60;;;11.10;99.90;;;;;;4923917;28;20063;-76
2023/11/10 13:15:48;;;;;;;2.33;0.60;;;11.50;99.90;;;;;;4938886;29;20535;-75
2023/11/10 13:18:34;;;;;;;;;;;11.60;99.90;;;;;;4933432;29;20050;-75
2023/11/10 13:21:20;;;;;;;2.15;0.60;;;11.60;99.90;;;;;;4957408;28;20318;-74
2023/11/10 13:24:07;;;;;;;2.95;0.90;;;11.70;99.90;;;;;;4975420;28;20046;-74
2023/11/10 13:26:53;;;;;;;4.07;0.98;;;11.40;99.90;;;;;;4975414;28;20183;-75
2023/11/10 13:29:40;;;;;;;4.47;1.00;;;11.20;99.90;;;;;;4962265;28;20584;-74
2023/11/10 13:32:27;;;;;;;2.75;0.80;;;11.00;99.90;;;;;;4944232;28;20042;-74
2023/11/10 13:35:15;;;;;;;3.40;1.10;;;11.10;99.90;;;;;;4930890;29;20051;-75
2023/11/10 13:38:01;;;;;;;4.13;1.00;;;11.20;99.90;;;;;;4943885;29;20043;-75
2023/11/10 13:40:47;;;;;;;3.53;1.40;;;11.30;99.90;;;;;;4941488;29;20066;-75
2023/11/10 13:43:35;;;;;;;4.65;1.45;;;11.50;99.90;;;;;;4937160;28;20043;-75
2023/11/10 13:46:21;;;;;;;3.90;1.00;;;11.30;99.90;;;;;;4940055;28;20359;-74
2023/11/10 13:49:08;;;;;;;2.03;0.60;;;11.10;99.90;;;;;;4966302;28;20066;-75
2023/11/10 13:51:55;;;;;;;3.15;0.90;;;11.00;99.90;;;;;;4952528;28;20027;-75
2023/11/10 13:54:42;;;;;;;3.05;0.85;;;10.90;99.90;;;;;;4951698;28;20082;-75
2023/11/10 13:57:28;;;;;;;2.75;0.70;;;11.00;99.90;;;;;;4933854;29;20487;-74
2023/11/10 14:00:17;;;;;;;3.05;1.00;;;11.00;99.90;;;;;;4947464;29;20478;-75
2023/11/10 14:03:03;;;;;;;1.85;0.80;;;11.00;99.90;;;;;;4933085;29;20058;-75
2023/11/10 14:05:52;;;;;;;1.40;0.80;;;10.90;99.90;;;;;;4933810;29;20051;-75
2023/11/10 14:08:38;;;;;;;3.33;0.73;;;10.80;99.90;;;;;;4962071;28;20043;-75
2023/11/10 14:11:25;;;;;;;3.40;0.63;;;10.60;99.90;;;;;;4955540;28;20502;-74
2023/11/10 14:14:11;;;;;;;4.07;0.82;;;10.60;99.90;;;;;;4937282;29;20345;-75
2023/11/10 14:16:58;;;;;;;5.65;0.95;;;10.60;99.90;;;;;;4933181;29;20126;-77
2023/11/10 14:19:44;;;;;;;3.13;1.25;;;10.60;99.90;;;;;;4933737;29;20156;-76
2023/11/10 14:22:30;;;;;;;3.40;0.70;;;10.50;99.90;;;;;;4925396;28;20061;-77
2023/11/10 14:25:16;;;;;;;3.85;0.98;;;10.50;99.90;;;;;;4946109;29;20031;-76
2023/11/10 14:28:04;;;;;;;4.03;0.70;;;10.40;99.90;;;;;;4929915;28;20467;-76
2023/11/10 14:30:50;;;;;;;3.03;0.90;;;10.50;99.90;;;;;;4933824;29;20063;-75
2023/11/10 14:33:36;;;;;;;2.78;0.90;;;10.40;99.90;;;;;;4949138;29;20086;-75
2023/11/10 14:36:22;;;;;;;2.33;0.60;;;10.30;99.90;;;;;;4950609;29;20042;-75
2023/11/10 14:39:08;;;;;;;3.60;0.60;;;10.30;99.90;;;;;;4952937;28;20043;-75
2023/11/10 14:41:55;;;;;;;1.95;0.75;;;10.30;99.90;;;;;;4947959;29;20050;-76
2023/11/10 14:44:43;;;;;;;4.13;0.88;;;10.30;99.90;;;;;;4949616;29;20047;-75
2023/11/10 14:47:30;;;;;;;2.78;0.70;;;10.40;99.90;;;;;;4927043;28;20046;-76
2023/11/10 14:50:24;;;;;;;1.38;0.93;;;10.40;99.90;;;;;;4943207;28;20039;-75
2023/11/10 14:53:27;;;;;;;3.17;1.08;;;10.40;99.90;;;;;;4949947;28;20122;-76
2023/11/10 14:56:13;;;;;;;4.15;1.10;;;10.40;99.90;;;;;;4957199;28;20057;-76
2023/11/10 14:58:59;;;;;;;3.58;1.13;;;10.30;99.90;;;;;;4938556;29;20050;-76
2023/11/10 15:01:47;;;;;;;3.22;0.75;;;10.30;99.90;;;;;;4935053;29;20089;-76
2023/11/10 15:04:44;;;;;;;2.30;0.70;;;10.30;99.90;;;;;;4947361;29;20074;-75
2023/11/10 15:07:30;;;;;;;4.35;0.60;;;10.40;99.90;;;;;;4939246;28;20553;-75
2023/11/10 15:10:16;;;;;;;10.20;2.05;;;10.40;99.90;;;;;;4954859;29;20587;-76
2023/11/10 15:13:11;;;;;;;2.80;0.70;;;10.40;99.90;;;;;;4938208;28;20454;-75
2023/11/10 15:15:58;;;;;;;1.23;0.55;;;10.30;99.90;;;;;;4934138;29;20067;-76
2023/11/10 15:18:47;;;;;;;1.90;0.60;;;10.30;99.90;;;;;;4933569;29;20082;-76
2023/11/10 15:21:33;;;;;;;2.15;0.82;;;10.20;99.90;;;;;;4947091;29;20053;-77
2023/11/10 15:24:20;;;;;;;3.20;1.00;;;10.20;99.90;;;;;;4940503;28;20464;-76
2023/11/10 15:27:06;;;;;;;2.42;0.95;;;10.20;99.90;;;;;;4939629;28;20455;-76
2023/11/10 15:29:54;;;;;;;2.72;0.70;;;10.10;99.90;;;;;;4963109;28;20121;-76
2023/11/10 15:32:41;;;;;;;2.83;0.80;;;10.10;99.90;;;;;;4945930;29;20043;-75
2023/11/10 15:35:28;;;;;;;2.67;0.60;;;10.10;99.90;;;;;;4977102;28;20418;-75